createdAt,value
2023-04-20T00:01:38.708Z,7.03
2023-04-20T00:04:25.632Z,8.05
2023-04-20T00:07:12.957Z,7.90
2023-04-20T00:10:00.594Z,7.43
2023-04-20T00:12:47.439Z,7.28
2023-04-20T00:15:34.287Z,7.30
2023-04-20T00:18:21.170Z,7.70
2023-04-20T00:21:09.254Z,7.35
2023-04-20T00:23:56.164Z,7.18
2023-04-20T00:26:43.001Z,6.75
2023-04-20T00:29:29.871Z,6.32
2023-04-20T00:32:16.747Z,7.95
2023-04-20T00:35:04.279Z,7.57
2023-04-20T00:37:51.225Z,6.50
2023-04-20T00:40:38.139Z,6.90
2023-04-20T00:43:25.034Z,7.43
2023-04-20T00:46:12.147Z,7.25
2023-04-20T00:48:59.426Z,6.80
2023-04-20T00:51:46.298Z,6.43
2023-04-20T00:54:33.204Z,9.32
2023-04-20T00:57:24.098Z,7.35
2023-04-20T01:00:11.646Z,8.27
2023-04-20T01:02:58.784Z,7.10
2023-04-20T01:05:45.705Z,8.38
2023-04-20T01:08:32.622Z,7.65
2023-04-20T01:11:19.504Z,7.88
2023-04-20T01:14:06.620Z,8.23
2023-04-20T01:16:53.477Z,7.05
2023-04-20T01:19:40.953Z,7.03
2023-04-20T01:22:27.822Z,7.72
2023-04-20T01:25:15.924Z,6.57
2023-04-20T01:28:02.811Z,7.40
2023-04-20T01:30:49.690Z,6.90
2023-04-20T01:33:36.771Z,6.72
2023-04-20T01:36:23.738Z,6.80
2023-04-20T01:39:11.576Z,6.97
2023-04-20T01:41:58.484Z,6.53
2023-04-20T01:44:45.383Z,7.07
2023-04-20T01:47:32.756Z,7.30
2023-04-20T01:50:19.612Z,7.18
2023-04-20T01:53:06.466Z,7.32
2023-04-20T01:55:53.342Z,6.80
2023-04-20T01:58:40.350Z,6.15
2023-04-20T02:01:27.355Z,7.53
2023-04-20T02:04:14.263Z,7.05
2023-04-20T02:07:01.241Z,6.53
2023-04-20T02:09:48.113Z,7.60
2023-04-20T02:12:35.472Z,7.22
2023-04-20T02:15:22.361Z,7.80
2023-04-20T02:18:09.635Z,7.75
2023-04-20T02:20:56.536Z,7.85
2023-04-20T02:23:43.470Z,7.38
2023-04-20T02:26:30.583Z,7.65
2023-04-20T02:29:17.859Z,6.85
2023-04-20T02:32:05.341Z,6.78
2023-04-20T02:34:52.183Z,7.20
2023-04-20T02:37:39.071Z,7.40
2023-04-20T02:40:26.104Z,6.78
2023-04-20T02:43:13.028Z,7.05
2023-04-20T02:45:59.930Z,7.70
2023-04-20T02:48:46.856Z,7.45
2023-04-20T02:51:34.031Z,8.15
2023-04-20T02:54:20.894Z,7.80
2023-04-20T02:57:07.805Z,7.50
2023-04-20T02:59:54.686Z,7.60
2023-04-20T03:02:41.702Z,6.78
2023-04-20T03:05:28.658Z,7.22
2023-04-20T03:08:15.860Z,6.65
2023-04-20T03:11:02.956Z,7.30
2023-04-20T03:13:50.203Z,7.22
2023-04-20T03:16:37.141Z,8.27
2023-04-20T03:19:24.478Z,7.78
2023-04-20T03:22:11.324Z,7.40
2023-04-20T03:24:58.257Z,7.40
2023-04-20T03:27:47.133Z,7.40
2023-04-20T03:30:34.043Z,6.93
2023-04-20T03:33:21.140Z,6.53
2023-04-20T03:36:08.121Z,7.03
2023-04-20T03:38:54.989Z,7.50
2023-04-20T03:41:41.913Z,7.22
2023-04-20T03:44:28.823Z,8.18
2023-04-20T03:47:15.973Z,7.28
2023-04-20T03:50:03.279Z,7.03
2023-04-20T03:52:50.339Z,7.38
2023-04-20T03:55:37.252Z,8.88
2023-04-20T03:58:24.164Z,7.95
2023-04-20T04:01:13.206Z,7.55
2023-04-20T04:04:00.525Z,8.45
2023-04-20T04:06:47.597Z,7.57
2023-04-20T04:09:34.462Z,8.05
2023-04-20T04:12:21.514Z,7.68
2023-04-20T04:15:08.899Z,7.72
2023-04-20T04:17:56.051Z,8.02
2023-04-20T04:20:43.126Z,7.30
2023-04-20T04:23:30.091Z,7.53
2023-04-20T04:26:18.247Z,8.05
2023-04-20T04:29:05.094Z,8.95
2023-04-20T04:31:53.205Z,7.90
2023-04-20T04:34:40.657Z,8.13
2023-04-20T04:37:28.125Z,8.05
2023-04-20T04:40:15.053Z,8.48
2023-04-20T04:43:02.721Z,7.78
2023-04-20T04:45:49.911Z,8.80
2023-04-20T04:48:37.858Z,7.82
2023-04-20T04:51:24.728Z,7.55
2023-04-20T04:54:11.577Z,8.40
2023-04-20T04:56:58.477Z,7.60
2023-04-20T04:59:45.653Z,9.00
2023-04-20T05:02:32.822Z,8.55
2023-04-20T05:05:20.412Z,7.95
2023-04-20T05:08:07.322Z,7.40
2023-04-20T05:10:54.160Z,9.52
2023-04-20T05:13:41.573Z,9.20
2023-04-20T05:16:28.419Z,8.23
2023-04-20T05:19:15.495Z,8.70
2023-04-20T05:22:02.742Z,9.00
2023-04-20T05:24:49.583Z,8.70
2023-04-20T05:27:36.443Z,8.85
2023-04-20T05:30:23.364Z,9.02
2023-04-20T05:33:10.308Z,8.73
2023-04-20T05:35:57.703Z,9.90
2023-04-20T05:38:44.614Z,10.60
2023-04-20T05:41:31.532Z,11.40
2023-04-20T05:44:22.133Z,10.20
2023-04-20T05:47:15.873Z,12.00
2023-04-20T05:50:02.849Z,10.68
2023-04-20T05:52:49.774Z,10.40
2023-04-20T05:55:36.693Z,11.07
2023-04-20T05:58:23.553Z,10.25
2023-04-20T06:01:10.446Z,10.70
2023-04-20T06:03:57.454Z,10.15
2023-04-20T06:06:44.617Z,11.80
2023-04-20T06:09:31.468Z,11.02
2023-04-20T06:12:18.285Z,11.02
2023-04-20T06:15:08.395Z,10.88
2023-04-20T06:17:55.555Z,10.32
2023-04-20T06:20:45.448Z,10.18
2023-04-20T06:23:32.436Z,10.63
2023-04-20T06:26:19.251Z,10.23
2023-04-20T06:29:06.312Z,10.05
2023-04-20T06:31:53.288Z,10.85
2023-04-20T06:34:40.504Z,9.85
2023-04-20T06:37:28.081Z,10.38
2023-04-20T06:40:16.143Z,10.73
2023-04-20T06:43:03.214Z,10.20
2023-04-20T06:45:50.056Z,9.38
2023-04-20T06:48:36.951Z,9.73
2023-04-20T06:51:23.809Z,9.95
2023-04-20T06:54:10.652Z,11.35
2023-04-20T06:56:57.700Z,10.05
2023-04-20T06:59:44.505Z,9.25
2023-04-20T07:02:42.364Z,10.65
2023-04-20T07:05:29.557Z,10.77
2023-04-20T07:08:17.009Z,9.43
2023-04-20T07:11:03.913Z,10.25
2023-04-20T07:13:50.719Z,11.10
2023-04-20T07:16:37.616Z,10.50
2023-04-20T07:19:24.462Z,9.68
2023-04-20T07:22:11.340Z,9.48
2023-04-20T07:24:58.251Z,10.18
2023-04-20T07:27:45.264Z,10.75
2023-04-20T07:30:32.310Z,9.27
2023-04-20T07:33:19.162Z,10.07
2023-04-20T07:36:06.447Z,10.02
2023-04-20T07:38:53.386Z,9.82
2023-04-20T07:41:40.301Z,10.18
2023-04-20T07:44:27.226Z,9.88
2023-04-20T07:47:14.327Z,9.90
2023-04-20T07:50:01.121Z,10.32
2023-04-20T07:52:47.990Z,9.85
2023-04-20T07:55:34.940Z,10.65
2023-04-20T07:58:21.731Z,11.18
2023-04-20T08:01:08.842Z,9.55
2023-04-20T08:03:56.203Z,10.10
2023-04-20T08:06:43.241Z,10.80
2023-04-20T08:09:30.325Z,9.65
2023-04-20T08:12:17.164Z,10.32
2023-04-20T08:15:06.421Z,11.88
2023-04-20T08:17:53.447Z,10.63
2023-04-20T08:20:40.702Z,10.23
2023-04-20T08:23:30.171Z,10.73
2023-04-20T08:26:20.774Z,10.32
2023-04-20T08:29:07.676Z,10.20
2023-04-20T08:31:54.589Z,9.43
2023-04-20T08:34:41.525Z,9.50
2023-04-20T08:37:29.170Z,9.57
2023-04-20T08:40:19.921Z,9.68
2023-04-20T08:43:06.768Z,10.27
2023-04-20T08:45:59.020Z,9.60
2023-04-20T08:48:48.497Z,11.50
2023-04-20T08:51:35.533Z,9.15
2023-04-20T08:54:24.248Z,10.32
2023-04-20T08:59:58.556Z,9.55
2023-04-20T09:02:50.825Z,10.90
2023-04-20T09:05:39.987Z,9.75
2023-04-20T09:08:40.332Z,10.82
2023-04-20T09:11:30.435Z,10.05
2023-04-20T09:14:18.323Z,9.75
2023-04-20T09:17:05.597Z,9.68
2023-04-20T09:19:53.309Z,9.90
2023-04-20T09:22:41.114Z,9.93
2023-04-20T09:25:32.305Z,10.55
2023-04-20T09:28:19.582Z,9.77
2023-04-20T09:31:06.502Z,10.70
2023-04-20T09:34:03.311Z,10.35
2023-04-20T09:36:52.048Z,10.43
2023-04-20T09:39:43.356Z,10.27
2023-04-20T09:42:32.104Z,10.07
2023-04-20T09:45:18.951Z,10.60
2023-04-20T09:48:08.961Z,10.50
2023-04-20T09:50:56.574Z,10.65
2023-04-20T09:53:43.724Z,10.50
2023-04-20T09:56:31.020Z,10.20
2023-04-20T09:59:19.582Z,11.02
2023-04-20T10:02:12.539Z,9.63
2023-04-20T10:04:59.935Z,10.20
2023-04-20T10:07:46.808Z,10.48
2023-04-20T10:10:44.022Z,9.07
2023-04-20T10:13:34.216Z,9.60
2023-04-20T10:16:21.468Z,9.93
2023-04-20T10:19:09.173Z,9.25
2023-04-20T10:21:56.237Z,9.52
2023-04-20T10:24:43.109Z,9.05
2023-04-20T10:27:32.260Z,10.23
2023-04-20T10:33:09.881Z,9.65
2023-04-20T10:35:58.965Z,7.88
2023-04-20T10:38:45.817Z,9.00
2023-04-20T10:41:32.759Z,9.10
2023-04-20T10:44:19.924Z,9.27
2023-04-20T10:47:06.847Z,9.15
2023-04-20T10:49:53.726Z,8.63
2023-04-20T10:52:42.345Z,9.20
2023-04-20T10:55:29.352Z,8.98
2023-04-20T10:58:25.759Z,8.50
2023-04-20T11:01:12.805Z,8.63
2023-04-20T11:04:00.223Z,9.10
2023-04-20T11:06:48.448Z,7.47
2023-04-20T11:09:36.259Z,7.13
2023-04-20T11:12:23.428Z,6.63
2023-04-20T11:15:10.482Z,7.10
2023-04-20T11:18:07.176Z,6.88
2023-04-20T11:20:55.159Z,8.68
2023-04-20T11:23:43.573Z,6.90
2023-04-20T11:26:43.506Z,7.15
2023-04-20T11:29:30.344Z,6.78
2023-04-20T11:32:18.442Z,7.32
2023-04-20T11:35:07.830Z,7.43
2023-04-20T11:40:44.405Z,7.22
2023-04-20T11:43:32.276Z,7.90
2023-04-20T11:46:23.097Z,9.35
2023-04-20T11:49:09.982Z,8.77
2023-04-20T11:51:56.820Z,8.40
2023-04-20T11:54:43.708Z,10.93
2023-04-20T11:57:30.724Z,9.88
2023-04-20T12:00:18.172Z,8.43
2023-04-20T12:03:05.431Z,8.38
2023-04-20T12:05:52.553Z,9.10
2023-04-20T12:08:39.494Z,8.60
2023-04-20T12:11:26.575Z,8.95
2023-04-20T12:14:13.710Z,8.57
2023-04-20T12:17:02.522Z,8.95
2023-04-20T12:19:49.820Z,8.25
2023-04-20T12:22:36.680Z,7.90
2023-04-20T12:25:23.549Z,8.38
2023-04-20T12:28:10.795Z,7.43
2023-04-20T12:30:57.978Z,8.02
2023-04-20T12:33:45.047Z,7.43
2023-04-20T12:36:32.548Z,7.47
2023-04-20T12:39:19.428Z,7.57
2023-04-20T12:42:06.316Z,7.63
2023-04-20T12:44:54.250Z,7.70
2023-04-20T12:47:41.128Z,8.93
2023-04-20T12:50:28.273Z,7.72
2023-04-20T12:53:15.104Z,6.93
2023-04-20T12:56:02.016Z,7.50
2023-04-20T12:58:49.004Z,7.28
2023-04-20T13:01:35.946Z,6.47
2023-04-20T13:04:24.536Z,6.30
2023-04-20T13:07:12.274Z,6.68
2023-04-20T13:10:00.484Z,6.28
2023-04-20T13:12:47.346Z,6.87
2023-04-20T13:15:39.004Z,11.32
2023-04-20T13:18:26.636Z,8.32
2023-04-20T13:21:13.517Z,8.20
2023-04-20T13:24:00.634Z,8.10
2023-04-20T13:26:47.502Z,8.82
2023-04-20T13:29:34.539Z,9.32
2023-04-20T13:32:21.414Z,8.27
2023-04-20T13:35:08.559Z,8.30
2023-04-20T13:37:55.520Z,8.00
2023-04-20T13:40:44.230Z,9.48
2023-04-20T13:43:31.069Z,8.05
2023-04-20T13:46:17.957Z,8.13
2023-04-20T13:49:04.796Z,8.40
2023-04-20T13:51:51.699Z,7.82
2023-04-20T13:54:38.577Z,8.30
2023-04-20T13:57:25.431Z,7.82
2023-04-20T14:00:12.969Z,10.65
2023-04-20T14:02:59.996Z,8.50
2023-04-20T14:05:47.113Z,7.80
2023-04-20T14:08:34.033Z,7.85
2023-04-20T14:11:20.887Z,8.13
2023-04-20T14:14:07.732Z,7.90
2023-04-20T14:16:54.589Z,10.25
2023-04-20T14:19:41.494Z,8.02
2023-04-20T14:22:34.195Z,12.18
2023-04-20T14:25:21.370Z,13.23
2023-04-20T14:28:08.399Z,11.73
2023-04-20T14:30:55.363Z,11.95
2023-04-20T14:33:44.570Z,9.00
2023-04-20T14:39:20.668Z,8.82
2023-04-20T14:42:07.733Z,8.77
2023-04-20T14:44:54.770Z,7.80
2023-04-20T14:47:41.656Z,8.43
2023-04-20T14:50:28.646Z,9.13
2023-04-20T14:53:15.702Z,9.25
2023-04-20T14:56:03.199Z,9.57
2023-04-20T14:58:50.159Z,9.57
2023-04-20T15:01:37.173Z,8.90
2023-04-20T15:04:25.167Z,8.55
2023-04-20T15:07:12.475Z,9.27
2023-04-20T15:09:59.383Z,9.25
2023-04-20T15:12:47.385Z,8.52
2023-04-20T15:15:47.552Z,9.02
2023-04-20T15:18:35.014Z,8.50
2023-04-20T15:21:22.673Z,8.30
2023-04-20T15:24:09.541Z,8.95
2023-04-20T15:26:56.514Z,9.43
2023-04-20T15:29:43.380Z,9.50
2023-04-20T15:32:30.442Z,9.10
2023-04-20T15:35:17.325Z,8.55
2023-04-20T15:38:04.313Z,9.20
2023-04-20T15:40:51.558Z,9.13
2023-04-20T15:43:39.407Z,9.98
2023-04-20T15:46:26.646Z,8.77
2023-04-20T15:49:13.620Z,9.98
2023-04-20T15:52:00.462Z,9.40
2023-04-20T15:54:48.095Z,11.02
2023-04-20T15:57:34.920Z,8.80
2023-04-20T16:00:21.810Z,9.63
2023-04-20T16:03:09.029Z,9.43
2023-04-20T16:05:56.057Z,10.65
2023-04-20T16:08:42.932Z,9.95
2023-04-20T16:11:30.290Z,10.57
2023-04-20T16:14:17.302Z,10.73
2023-04-20T16:17:04.360Z,9.68
2023-04-20T16:19:51.215Z,10.07
2023-04-20T16:22:38.216Z,10.90
2023-04-20T16:25:26.198Z,11.25
2023-04-20T16:28:13.492Z,10.85
2023-04-20T16:31:00.429Z,11.15
2023-04-20T16:33:47.886Z,11.93
2023-04-20T16:36:34.839Z,11.45
2023-04-20T16:39:21.721Z,10.82
2023-04-20T16:42:08.629Z,11.65
2023-04-20T16:44:55.846Z,12.25
2023-04-20T16:47:42.894Z,11.07
2023-04-20T16:50:29.832Z,12.35
2023-04-20T16:53:16.651Z,11.95
2023-04-20T16:56:03.529Z,11.90
2023-04-20T16:58:50.462Z,11.82
2023-04-20T17:01:37.478Z,12.15
2023-04-20T17:04:24.626Z,12.77
2023-04-20T17:07:13.367Z,12.75
2023-04-20T17:10:00.355Z,11.27
2023-04-20T17:12:47.491Z,12.25
2023-04-20T17:15:34.390Z,11.77
2023-04-20T17:18:21.557Z,10.82
2023-04-20T17:21:08.431Z,12.93
2023-04-20T17:23:56.130Z,11.48
2023-04-20T17:26:42.988Z,14.32
2023-04-20T17:29:34.775Z,13.88
2023-04-20T17:32:21.891Z,15.15
2023-04-20T17:35:09.052Z,13.68
2023-04-20T17:37:55.982Z,11.18
2023-04-20T17:40:42.838Z,12.70
2023-04-20T17:43:29.774Z,10.02
2023-04-20T17:46:16.703Z,12.05
2023-04-20T17:49:03.620Z,12.02
2023-04-20T17:51:50.638Z,11.27
2023-04-20T17:54:37.502Z,10.90
2023-04-20T17:57:24.344Z,11.15
2023-04-20T18:00:11.889Z,11.38
2023-04-20T18:02:59.344Z,10.30
2023-04-20T18:05:46.603Z,10.45
2023-04-20T18:08:34.508Z,10.40
2023-04-20T18:11:21.799Z,10.88
2023-04-20T18:14:08.700Z,10.65
2023-04-20T18:16:56.379Z,10.82
2023-04-20T18:19:43.229Z,10.85
2023-04-20T18:22:30.179Z,10.18
2023-04-20T18:25:18.878Z,10.45
2023-04-20T18:28:05.725Z,10.40
2023-04-20T18:30:52.656Z,9.95
2023-04-20T18:33:39.557Z,9.65
2023-04-20T18:36:26.856Z,10.25
2023-04-20T18:39:14.748Z,10.70
2023-04-20T18:42:02.260Z,9.68
2023-04-20T18:44:52.993Z,10.38
2023-04-20T18:47:39.963Z,10.02
2023-04-20T18:50:26.790Z,10.35
2023-04-20T18:53:14.278Z,10.43
2023-04-20T18:56:03.732Z,11.88
2023-04-20T18:58:50.617Z,10.18
2023-04-20T19:01:40.553Z,11.23
2023-04-20T19:04:27.787Z,11.82
2023-04-20T19:07:14.710Z,10.95
2023-04-20T19:10:01.583Z,10.63
2023-04-20T19:12:48.419Z,11.10
2023-04-20T19:15:35.254Z,11.13
2023-04-20T19:18:22.089Z,10.50
2023-04-20T19:21:08.959Z,10.23
2023-04-20T19:23:56.296Z,9.90
2023-04-20T19:26:43.164Z,11.55
2023-04-20T19:29:30.103Z,10.65
2023-04-20T19:32:17.218Z,11.90
2023-04-20T19:35:04.624Z,11.60
2023-04-20T19:37:51.625Z,11.15
2023-04-20T19:40:38.576Z,10.30
2023-04-20T19:43:25.518Z,10.75
2023-04-20T19:46:12.565Z,9.98
2023-04-20T19:49:00.869Z,11.10
2023-04-20T19:51:47.915Z,10.80
2023-04-20T19:54:34.754Z,11.45
2023-04-20T19:57:21.576Z,11.90
2023-04-20T20:00:09.972Z,11.48
2023-04-20T20:02:56.976Z,11.75
2023-04-20T20:05:44.041Z,11.65
2023-04-20T20:08:31.212Z,11.38
2023-04-20T20:11:18.212Z,11.13
2023-04-20T20:14:05.130Z,11.57
2023-04-20T20:16:51.941Z,11.35
2023-04-20T20:19:39.992Z,11.80
2023-04-20T20:22:26.855Z,10.32
2023-04-20T20:25:15.161Z,11.93
2023-04-20T20:28:02.055Z,10.20
2023-04-20T20:30:48.914Z,11.50
2023-04-20T20:33:35.819Z,10.57
2023-04-20T20:36:22.760Z,11.52
2023-04-20T20:39:09.699Z,12.23
2023-04-20T20:41:57.153Z,13.15
2023-04-20T20:44:44.134Z,11.15
2023-04-20T20:47:31.104Z,10.82
2023-04-20T20:50:19.117Z,10.43
2023-04-20T20:53:05.967Z,11.40
2023-04-20T20:55:53.846Z,11.38
2023-04-20T20:58:40.968Z,10.63
2023-04-20T21:01:27.989Z,11.05
2023-04-20T21:04:15.000Z,11.13
2023-04-20T21:07:01.957Z,9.88
2023-04-20T21:09:48.908Z,10.43
2023-04-20T21:12:35.845Z,11.65
2023-04-20T21:15:22.862Z,11.32
2023-04-20T21:18:09.828Z,11.80
2023-04-20T21:20:56.774Z,11.73
2023-04-20T21:23:43.632Z,11.88
2023-04-20T21:26:35.679Z,11.18
2023-04-20T21:29:22.635Z,11.25
2023-04-20T21:32:09.959Z,10.70
2023-04-20T21:34:56.889Z,12.07
2023-04-20T21:37:44.030Z,10.77
2023-04-20T21:40:30.888Z,11.32
2023-04-20T21:43:17.777Z,11.52
2023-04-20T21:46:04.721Z,12.13
2023-04-20T21:48:51.604Z,11.98
2023-04-20T21:51:38.545Z,10.98
2023-04-20T21:54:25.510Z,12.50
2023-04-20T21:57:12.486Z,11.25
2023-04-20T21:59:59.337Z,11.25
2023-04-20T22:02:46.444Z,11.95
2023-04-20T22:05:33.446Z,11.50
2023-04-20T22:08:23.413Z,10.65
2023-04-20T22:11:10.301Z,11.23
2023-04-20T22:14:00.442Z,12.15
2023-04-20T22:16:47.993Z,11.40
2023-04-20T22:19:36.029Z,11.27
2023-04-20T22:22:22.899Z,11.95
2023-04-20T22:25:09.971Z,11.85
2023-04-20T22:27:57.058Z,11.45
2023-04-20T22:30:44.037Z,12.18
2023-04-20T22:33:30.980Z,12.48
2023-04-20T22:36:18.726Z,11.63
2023-04-20T22:39:05.673Z,11.73
2023-04-20T22:41:52.638Z,10.70
2023-04-20T22:44:39.491Z,11.10
2023-04-20T22:47:26.619Z,11.60
2023-04-20T22:50:13.624Z,10.93
2023-04-20T22:53:00.571Z,11.55
2023-04-20T22:55:47.424Z,12.05
2023-04-20T22:58:34.435Z,12.63
2023-04-20T23:01:21.437Z,11.57
2023-04-20T23:04:08.487Z,11.07
2023-04-20T23:06:56.099Z,11.73
2023-04-20T23:09:44.043Z,11.38
2023-04-20T23:12:32.354Z,11.07
2023-04-20T23:15:19.277Z,11.35
2023-04-20T23:18:06.190Z,10.30
2023-04-20T23:20:53.081Z,11.25
2023-04-20T23:23:40.001Z,12.15
2023-04-20T23:26:27.131Z,11.07
2023-04-20T23:29:13.967Z,11.00
2023-04-20T23:32:01.335Z,12.45
2023-04-20T23:34:48.258Z,12.00
2023-04-20T23:37:35.080Z,11.10
2023-04-20T23:40:21.949Z,11.63
2023-04-20T23:43:08.796Z,10.95
2023-04-20T23:45:55.797Z,11.48
2023-04-20T23:48:42.962Z,11.80
2023-04-20T23:51:29.856Z,11.27
2023-04-20T23:54:16.756Z,11.32
2023-04-20T23:57:03.671Z,11.23
2023-04-20T23:59:50.477Z,11.63
